Time;durP1;ratioP1;P1;durP2;ratioP2;P2;SDS_P1;SDS_P2;PMS_P1;PMS_P2;Temp;Humidity;BMP_temperature;BMP_pressure;BME280_temperature;BME280_humidity;BME280_pressure;Samples;Min_cycle;Max_cycle;Signal;HPM_P1;HPM_P2
2022/10/06 00:00:41;;;;;;;17.73;13.50;;;16.80;99.90;;;;;;5005227;28;20393;-79
2022/10/06 00:03:06;;;;;;;16.30;13.15;;;16.80;99.90;;;;;;5011825;28;20326;-79
2022/10/06 00:05:32;;;;;;;16.58;12.35;;;16.80;99.90;;;;;;5012031;28;20061;-79
2022/10/06 00:07:59;;;;;;;17.10;12.75;;;16.80;99.90;;;;;;5011728;28;20502;-79
2022/10/06 00:10:25;;;;;;;15.55;13.10;;;16.80;99.90;;;;;;5011768;28;20460;-79
2022/10/06 00:12:51;;;;;;;18.83;13.25;;;16.80;99.90;;;;;;5011506;28;20538;-79
2022/10/06 00:15:21;;;;;;;19.77;14.25;;;16.80;99.90;;;;;;5012025;28;20026;-79
2022/10/06 00:17:47;;;;;;;21.58;13.73;;;16.80;99.90;;;;;;5011972;28;20042;-79
2022/10/06 00:20:13;;;;;;;22.55;14.85;;;16.80;99.90;;;;;;5011540;28;20145;-79
2022/10/06 00:22:42;;;;;;;23.23;14.25;;;16.90;99.90;;;;;;5010351;28;20108;-79
2022/10/06 00:25:10;;;;;;;17.63;13.73;;;16.90;99.90;;;;;;5010249;28;20026;-79
2022/10/06 00:27:40;;;;;;;20.08;13.93;;;16.90;99.90;;;;;;5011377;28;20033;-80
2022/10/06 00:30:10;;;;;;;21.10;14.75;;;16.90;99.90;;;;;;5011651;28;20056;-79
2022/10/06 00:32:36;;;;;;;22.42;14.02;;;16.90;99.90;;;;;;5026217;28;20062;-79
2022/10/06 00:35:02;;;;;;;17.17;13.50;;;16.90;99.90;;;;;;5011825;28;20056;-79
2022/10/06 00:37:32;;;;;;;18.13;14.73;;;16.90;99.90;;;;;;5026495;28;20036;-79
2022/10/06 00:39:58;;;;;;;18.00;13.13;;;16.90;99.90;;;;;;5011247;28;20034;-79
2022/10/06 00:42:29;;;;;;;21.58;13.30;;;16.90;99.90;;;;;;5009987;28;20079;-79
2022/10/06 00:45:02;;;;;;;20.63;13.63;;;16.80;99.90;;;;;;5011207;28;20018;-79
2022/10/06 00:47:30;;;;;;;19.05;12.80;;;16.80;99.90;;;;;;5026398;28;20033;-79
2022/10/06 00:49:57;;;;;;;18.00;13.35;;;16.90;99.90;;;;;;5010678;28;20026;-79
2022/10/06 00:52:27;;;;;;;17.67;13.35;;;16.80;99.90;;;;;;5010325;28;20032;-79
2022/10/06 00:54:52;;;;;;;19.75;13.25;;;16.80;99.90;;;;;;5011104;28;20495;-79
2022/10/06 00:57:19;;;;;;;16.08;12.60;;;16.80;99.90;;;;;;5010995;28;20037;-79
2022/10/06 00:59:46;;;;;;;16.17;12.40;;;16.80;99.90;;;;;;5002982;28;20026;-79
2022/10/06 01:02:29;;;;;;;16.25;12.30;;;16.90;99.90;;;;;;5010995;28;20034;-79
2022/10/06 01:04:59;;;;;;;15.57;12.10;;;17.00;99.90;;;;;;5011058;28;20109;-79
2022/10/06 01:07:27;;;;;;;16.33;12.13;;;16.90;99.90;;;;;;5010903;28;20018;-79
2022/10/06 01:09:54;;;;;;;16.90;11.52;;;16.90;99.90;;;;;;5010942;28;20025;-79
2022/10/06 01:12:21;;;;;;;13.45;10.75;;;16.90;99.90;;;;;;5010647;28;20155;-79
2022/10/06 01:14:47;;;;;;;12.15;10.75;;;17.00;99.90;;;;;;5025807;28;20026;-79
2022/10/06 01:17:38;;;;;;;14.15;10.65;;;17.10;99.90;;;;;;5011138;28;20060;-79
2022/10/06 01:20:09;;;;;;;14.93;12.05;;;17.00;99.90;;;;;;5010588;28;20026;-79
2022/10/06 01:22:43;;;;;;;17.13;12.18;;;17.00;99.90;;;;;;5010742;28;20049;-79
2022/10/06 01:25:13;;;;;;;16.58;12.07;;;17.00;99.90;;;;;;5025282;28;20033;-79
2022/10/06 01:27:41;;;;;;;15.50;11.90;;;16.90;99.90;;;;;;5011269;28;20097;-79
2022/10/06 01:30:10;;;;;;;18.00;12.68;;;16.90;99.90;;;;;;5010896;28;20113;-79
2022/10/06 01:32:37;;;;;;;16.95;12.18;;;16.90;99.90;;;;;;5010662;28;20037;-79
2022/10/06 01:35:05;;;;;;;18.67;13.18;;;16.90;99.90;;;;;;5010527;28;20029;-79
2022/10/06 01:37:30;;;;;;;14.60;11.98;;;16.90;99.90;;;;;;5010610;28;20513;-79
2022/10/06 01:39:56;;;;;;;17.88;12.50;;;17.00;99.90;;;;;;5010561;28;20041;-79
2022/10/06 01:42:22;;;;;;;18.02;12.65;;;16.90;99.90;;;;;;5010299;28;20037;-79
2022/10/06 01:44:48;;;;;;;16.45;11.82;;;16.90;99.90;;;;;;5010441;28;20014;-79
2022/10/06 01:47:14;;;;;;;19.05;11.70;;;16.90;99.90;;;;;;5004608;28;20041;-79
2022/10/06 01:49:39;;;;;;;15.38;12.38;;;16.80;99.90;;;;;;5010495;28;20050;-79
2022/10/06 01:52:06;;;;;;;16.60;12.57;;;16.90;99.90;;;;;;5009102;28;20553;-79
2022/10/06 01:54:31;;;;;;;16.15;12.18;;;16.90;99.90;;;;;;5010644;28;20117;-79
2022/10/06 01:56:57;;;;;;;14.55;11.63;;;16.80;99.90;;;;;;5009151;28;20120;-79
2022/10/06 01:59:23;;;;;;;14.10;11.15;;;16.90;99.90;;;;;;5005861;28;20046;-79
2022/10/06 02:01:49;;;;;;;14.05;11.85;;;16.90;99.90;;;;;;5023331;28;20053;-79
2022/10/06 02:04:15;;;;;;;20.15;12.32;;;16.80;99.90;;;;;;5011030;28;20034;-79
2022/10/06 02:06:41;;;;;;;16.48;12.43;;;16.80;99.90;;;;;;5010417;28;20101;-79
2022/10/06 02:09:06;;;;;;;16.60;11.48;;;16.80;99.90;;;;;;5009921;28;20053;-79
2022/10/06 02:11:32;;;;;;;12.82;10.68;;;16.90;99.90;;;;;;5010148;28;20041;-79
2022/10/06 02:14:00;;;;;;;14.15;11.48;;;16.80;99.90;;;;;;5010408;28;20464;-79
2022/10/06 02:16:26;;;;;;;16.40;11.35;;;16.80;99.90;;;;;;5009957;28;20068;-79
2022/10/06 02:18:53;;;;;;;13.23;10.80;;;16.80;99.90;;;;;;5010803;28;20033;-79
2022/10/06 02:21:21;;;;;;;12.70;10.27;;;16.80;99.90;;;;;;5009866;28;20046;-79
2022/10/06 02:23:47;;;;;;;14.93;11.00;;;16.80;99.90;;;;;;5010371;28;20025;-79
2022/10/06 02:26:16;;;;;;;12.95;10.75;;;16.80;99.90;;;;;;5010384;28;20018;-79
2022/10/06 02:28:45;;;;;;;16.83;10.80;;;16.80;99.90;;;;;;5010121;28;20026;-79
2022/10/06 02:31:12;;;;;;;15.43;11.35;;;16.70;99.90;;;;;;5009892;28;20030;-79
2022/10/06 02:33:39;;;;;;;13.95;11.15;;;16.70;99.90;;;;;;5010256;28;20029;-79
2022/10/06 02:36:07;;;;;;;16.85;12.25;;;16.70;99.90;;;;;;5009954;28;20712;-78
2022/10/06 02:38:32;;;;;;;14.77;10.98;;;16.70;99.90;;;;;;5024916;28;20030;-79
2022/10/06 02:40:59;;;;;;;15.48;10.90;;;16.60;99.90;;;;;;5009744;28;20487;-79
2022/10/06 02:43:28;;;;;;;15.25;10.65;;;16.60;99.90;;;;;;5010029;28;20022;-79
2022/10/06 02:46:05;;;;;;;13.45;10.68;;;16.70;99.90;;;;;;5010980;28;20032;-79
2022/10/06 02:48:32;;;;;;;13.18;10.73;;;16.60;99.90;;;;;;5009800;28;20072;-79
2022/10/06 02:51:00;;;;;;;14.35;10.82;;;16.50;99.90;;;;;;5013722;28;20100;-79
2022/10/06 02:53:27;;;;;;;17.02;11.52;;;16.50;99.90;;;;;;5000299;28;20030;-79
2022/10/06 02:55:58;;;;;;;16.42;10.77;;;16.50;99.90;;;;;;5013149;28;20104;-79
2022/10/06 02:58:24;;;;;;;11.98;9.70;;;16.50;99.90;;;;;;5013714;28;20026;-79
2022/10/06 03:00:49;;;;;;;13.68;10.48;;;16.50;99.90;;;;;;5006788;28;20458;-79
2022/10/06 03:03:15;;;;;;;13.88;9.52;;;16.50;99.90;;;;;;5028678;28;20034;-79
2022/10/06 03:05:41;;;;;;;13.48;10.30;;;16.50;99.90;;;;;;5013227;28;20027;-79
2022/10/06 03:08:09;;;;;;;10.77;9.02;;;16.50;99.90;;;;;;5013248;28;20369;-79
2022/10/06 03:10:35;;;;;;;14.68;9.73;;;16.40;99.90;;;;;;5012778;28;20022;-79
2022/10/06 03:13:01;;;;;;;12.05;10.25;;;16.40;99.90;;;;;;5012558;28;20080;-79
2022/10/06 03:15:27;;;;;;;10.55;9.43;;;16.40;99.90;;;;;;5013508;28;20030;-79
2022/10/06 03:17:53;;;;;;;11.80;9.25;;;16.30;99.90;;;;;;5012930;28;20022;-79
2022/10/06 03:20:19;;;;;;;11.95;9.00;;;16.40;99.90;;;;;;5013261;28;20453;-79
2022/10/06 03:22:44;;;;;;;12.15;9.32;;;16.30;99.90;;;;;;5012427;28;20480;-79
2022/10/06 03:25:10;;;;;;;14.93;10.13;;;16.30;99.90;;;;;;5027750;28;20403;-79
2022/10/06 03:27:36;;;;;;;12.73;9.65;;;16.30;99.90;;;;;;5012793;28;20152;-79
2022/10/06 03:30:03;;;;;;;12.13;9.85;;;16.20;99.90;;;;;;5027865;28;20403;-79
2022/10/06 03:32:28;;;;;;;11.90;9.88;;;16.20;99.90;;;;;;5027719;28;20025;-79
2022/10/06 03:34:54;;;;;;;11.88;9.55;;;16.20;99.90;;;;;;5012908;28;20034;-79
2022/10/06 03:37:20;;;;;;;14.27;9.48;;;16.20;99.90;;;;;;5013031;28;20377;-79
2022/10/06 03:39:45;;;;;;;9.93;8.45;;;16.20;99.90;;;;;;5027571;28;20123;-79
2022/10/06 03:42:11;;;;;;;13.05;9.82;;;16.20;99.90;;;;;;5010607;28;20022;-79
2022/10/06 03:44:37;;;;;;;11.95;9.27;;;16.20;99.90;;;;;;5012421;28;20029;-79
2022/10/06 03:47:03;;;;;;;10.68;9.15;;;16.20;99.90;;;;;;5006247;28;20018;-79
2022/10/06 03:49:28;;;;;;;11.73;8.88;;;16.20;99.90;;;;;;5027939;28;20558;-79
2022/10/06 03:51:54;;;;;;;10.35;8.75;;;16.30;99.90;;;;;;5008516;28;20476;-79
2022/10/06 03:54:20;;;;;;;13.40;9.25;;;16.20;99.90;;;;;;5003287;28;20514;-79
2022/10/06 03:56:45;;;;;;;10.00;8.18;;;16.20;99.90;;;;;;5012263;28;20025;-79
2022/10/06 03:59:14;;;;;;;10.60;8.50;;;16.20;99.90;;;;;;5008518;28;20518;-79
2022/10/06 04:01:45;;;;;;;9.73;8.30;;;16.30;99.90;;;;;;5009762;28;20022;-79
2022/10/06 04:04:12;;;;;;;10.83;8.47;;;16.30;99.90;;;;;;5027686;28;20053;-79
2022/10/06 04:06:40;;;;;;;11.02;8.60;;;16.20;99.90;;;;;;5011556;28;20287;-79
2022/10/06 04:09:09;;;;;;;9.13;7.57;;;16.30;99.90;;;;;;5012218;28;20046;-79
2022/10/06 04:11:37;;;;;;;9.88;7.82;;;16.30;99.90;;;;;;5011928;28;20026;-79
2022/10/06 04:14:09;;;;;;;9.15;7.95;;;16.30;99.90;;;;;;5011817;28;20044;-79
2022/10/06 04:16:38;;;;;;;;;;;16.20;99.90;;;;;;5025834;28;20033;-79
2022/10/06 04:19:08;;;;;;;9.00;7.05;;;16.20;99.90;;;;;;5012243;28;19944;-79
2022/10/06 04:21:35;;;;;;;9.80;6.93;;;16.30;99.90;;;;;;5013816;28;20041;-78
2022/10/06 04:24:02;;;;;;;9.65;7.60;;;16.30;99.90;;;;;;5012149;28;20037;-79
2022/10/06 04:26:31;;;;;;;10.95;7.47;;;16.30;99.90;;;;;;5011584;28;20044;-79
2022/10/06 04:28:57;;;;;;;9.68;7.20;;;16.30;99.90;;;;;;5012339;28;20030;-79
2022/10/06 04:31:28;;;;;;;10.07;7.63;;;16.30;99.90;;;;;;5011468;28;20030;-79
2022/10/06 04:33:55;;;;;;;;;;;16.30;99.90;;;;;;5011710;28;20026;-79
2022/10/06 04:36:24;;;;;;;8.02;7.22;;;16.30;99.90;;;;;;5026584;28;20059;-79
2022/10/06 04:38:55;;;;;;;9.77;7.53;;;16.30;99.90;;;;;;5011740;28;20021;-79
2022/10/06 04:41:21;;;;;;;8.77;6.68;;;16.30;99.90;;;;;;5026543;28;20619;-79
2022/10/06 04:43:48;;;;;;;8.43;7.20;;;16.30;99.90;;;;;;5011599;28;20038;-79
2022/10/06 04:46:15;;;;;;;10.77;7.82;;;16.30;99.90;;;;;;5009549;28;20045;-79
2022/10/06 04:48:41;;;;;;;11.80;8.20;;;16.20;99.90;;;;;;5008099;28;20072;-79
2022/10/06 04:51:11;;;;;;;12.27;8.75;;;16.20;99.90;;;;;;5011326;28;20033;-79
2022/10/06 04:53:36;;;;;;;11.27;8.38;;;16.20;99.90;;;;;;5025095;28;20040;-79
2022/10/06 04:56:05;;;;;;;10.45;7.90;;;16.20;99.90;;;;;;5010256;28;20034;-79
2022/10/06 04:58:36;;;;;;;8.43;7.47;;;16.30;99.90;;;;;;5011766;28;20022;-79
2022/10/06 05:01:02;;;;;;;10.70;8.75;;;16.30;99.90;;;;;;5003852;28;20049;-79
2022/10/06 05:03:29;;;;;;;9.82;6.95;;;16.20;99.90;;;;;;5011456;28;20122;-79
2022/10/06 05:06:06;;;;;;;12.65;8.32;;;16.20;99.90;;;;;;5026406;28;20022;-79
2022/10/06 05:08:33;;;;;;;10.30;7.90;;;16.20;99.90;;;;;;5026044;28;20028;-79
2022/10/06 05:11:05;;;;;;;9.60;7.82;;;16.20;99.90;;;;;;5010669;28;20026;-79
2022/10/06 05:13:31;;;;;;;10.50;8.90;;;16.20;99.90;;;;;;5011256;28;20076;-79
2022/10/06 05:15:58;;;;;;;11.02;8.60;;;16.20;99.90;;;;;;5010771;28;20026;-79
2022/10/06 05:18:25;;;;;;;10.75;7.95;;;16.30;99.90;;;;;;5010779;28;20046;-79
2022/10/06 05:21:05;;;;;;;10.55;7.70;;;16.20;99.90;;;;;;5011054;28;20141;-78
2022/10/06 05:23:33;;;;;;;13.25;8.23;;;16.20;99.90;;;;;;5011092;28;20113;-79
2022/10/06 05:26:00;;;;;;;9.60;7.78;;;16.20;99.90;;;;;;5010783;28;20029;-79
2022/10/06 05:28:28;;;;;;;11.18;7.18;;;16.20;99.90;;;;;;5010945;28;20018;-79
2022/10/06 05:31:05;;;;;;;8.10;7.28;;;16.10;99.90;;;;;;5010626;28;20110;-79
2022/10/06 05:33:33;;;;;;;9.60;7.72;;;16.10;99.90;;;;;;5011051;28;20104;-79
2022/10/06 05:36:01;;;;;;;10.15;7.15;;;16.10;99.90;;;;;;5010577;28;20022;-79
2022/10/06 05:38:28;;;;;;;7.88;7.03;;;16.20;99.90;;;;;;5010771;28;20054;-79
2022/10/06 05:41:09;;;;;;;8.73;7.20;;;16.20;99.90;;;;;;5025801;28;20431;-79
2022/10/06 05:43:35;;;;;;;8.43;7.55;;;16.20;99.90;;;;;;5010916;28;20065;-79
2022/10/06 05:46:03;;;;;;;7.57;6.53;;;16.20;99.90;;;;;;5010024;28;20034;-78
2022/10/06 05:48:29;;;;;;;7.55;6.47;;;16.20;99.90;;;;;;5020921;28;20080;-79
2022/10/06 05:51:06;;;;;;;6.63;6.03;;;16.30;99.90;;;;;;5010190;28;20022;-80
2022/10/06 05:53:34;;;;;;;7.90;6.15;;;16.30;99.90;;;;;;5025553;28;20109;-80
2022/10/06 05:56:11;;;;;;;7.13;6.00;;;16.30;99.90;;;;;;5025659;28;20048;-81
2022/10/06 05:58:39;;;;;;;7.15;6.38;;;16.20;99.90;;;;;;5010455;28;20092;-80
2022/10/06 06:01:27;;;;;;;9.00;6.43;;;16.20;99.90;;;;;;5003072;28;20072;-80
2022/10/06 06:04:04;;;;;;;10.73;6.72;;;16.20;99.90;;;;;;5010381;28;20040;-80
2022/10/06 06:06:32;;;;;;;6.72;6.00;;;16.10;99.90;;;;;;5025601;28;20026;-80
2022/10/06 06:09:08;;;;;;;6.68;5.90;;;16.20;99.90;;;;;;5010352;28;20056;-80
2022/10/06 06:11:37;;;;;;;6.72;6.00;;;16.20;99.90;;;;;;5009816;28;20022;-80
2022/10/06 06:14:14;;;;;;;6.60;5.90;;;16.20;99.90;;;;;;5010749;28;20022;-80
2022/10/06 06:16:41;;;;;;;7.75;5.43;;;16.20;99.90;;;;;;5003317;28;20033;-80
2022/10/06 06:19:09;;;;;;;6.93;5.88;;;16.30;99.90;;;;;;5019346;28;20034;-80
2022/10/06 06:21:35;;;;;;;6.75;6.05;;;16.20;99.90;;;;;;5008044;28;20108;-80
2022/10/06 06:24:02;;;;;;;6.35;5.75;;;16.30;99.90;;;;;;5013608;28;20030;-80
2022/10/06 06:26:30;;;;;;;5.90;5.38;;;16.30;99.90;;;;;;5013838;28;20023;-80
2022/10/06 06:29:05;;;;;;;5.68;5.18;;;16.40;99.90;;;;;;5013961;28;20021;-80
2022/10/06 06:31:32;;;;;;;5.68;4.68;;;16.50;99.90;;;;;;5013186;28;20018;-80
2022/10/06 06:34:00;;;;;;;7.45;5.80;;;16.40;99.90;;;;;;5013774;28;20097;-80
2022/10/06 06:36:40;;;;;;;5.22;4.72;;;16.30;99.90;;;;;;5013486;28;20104;-80
2022/10/06 06:39:09;;;;;;;6.25;5.28;;;16.30;99.90;;;;;;5023801;28;20034;-80
2022/10/06 06:41:38;;;;;;;6.43;5.32;;;16.30;99.90;;;;;;5027387;28;20480;-80
2022/10/06 06:44:06;;;;;;;7.30;5.65;;;16.20;99.90;;;;;;5011917;28;20105;-80
2022/10/06 06:46:33;;;;;;;6.85;5.63;;;16.20;99.90;;;;;;5012568;28;20026;-80
2022/10/06 06:49:03;;;;;;;6.50;5.60;;;16.20;99.90;;;;;;5004747;28;20056;-79
2022/10/06 06:51:34;;;;;;;6.32;5.72;;;16.30;99.90;;;;;;5027613;28;20503;-79
2022/10/06 06:54:01;;;;;;;6.40;5.63;;;16.30;99.90;;;;;;5031933;28;20110;-79
2022/10/06 06:56:33;;;;;;;6.28;5.63;;;16.40;99.90;;;;;;5012675;28;20030;-79
2022/10/06 06:59:00;;;;;;;7.10;5.15;;;16.40;99.90;;;;;;5012317;28;20018;-79
2022/10/06 07:01:26;;;;;;;7.70;5.57;;;16.40;99.90;;;;;;5012330;28;20133;-79
2022/10/06 07:03:54;;;;;;;6.85;5.35;;;16.40;99.90;;;;;;5027825;28;20076;-79
2022/10/06 07:06:21;;;;;;;6.47;5.30;;;16.40;99.90;;;;;;5012114;28;20048;-79
2022/10/06 07:08:48;;;;;;;6.65;5.53;;;16.40;99.90;;;;;;5011595;28;20593;-79
2022/10/06 07:11:19;;;;;;;6.32;5.72;;;16.40;99.90;;;;;;5026574;28;20116;-79
2022/10/06 07:13:46;;;;;;;6.40;5.40;;;16.40;99.90;;;;;;5012668;28;20560;-79
2022/10/06 07:27:11;;;;;;;5.35;4.85;;;16.50;99.90;;;;;;5012553;28;20088;-79
2022/10/06 07:29:36;;;;;;;5.70;4.85;;;16.40;99.90;;;;;;5010557;28;20030;-79
2022/10/06 07:32:02;;;;;;;7.15;5.78;;;16.50;99.90;;;;;;5011466;28;20499;-79
2022/10/06 07:34:31;;;;;;;9.77;6.35;;;16.40;99.90;;;;;;5012429;28;20056;-79
2022/10/06 07:36:56;;;;;;;8.77;6.18;;;16.40;99.90;;;;;;5003322;28;20268;-79
2022/10/06 07:39:22;;;;;;;8.75;6.28;;;16.50;99.90;;;;;;5010211;28;20065;-79
2022/10/06 07:41:48;;;;;;;7.47;5.93;;;16.50;99.90;;;;;;5011157;28;20033;-79
2022/10/06 07:44:14;;;;;;;9.02;6.45;;;16.50;99.90;;;;;;5012135;28;20505;-79
2022/10/06 07:46:39;;;;;;;11.10;7.22;;;16.50;99.90;;;;;;5015673;28;20029;-79
2022/10/06 07:49:05;;;;;;;9.23;6.78;;;16.50;99.90;;;;;;5015457;28;20522;-80
2022/10/06 07:51:31;;;;;;;8.27;6.65;;;16.50;99.90;;;;;;5011924;28;20396;-79
2022/10/06 07:53:56;;;;;;;9.10;6.47;;;16.50;99.90;;;;;;5012097;28;20054;-79
2022/10/06 07:56:22;;;;;;;10.38;7.15;;;16.50;99.90;;;;;;5011379;28;20590;-80
2022/10/06 07:58:50;;;;;;;8.88;7.22;;;16.60;99.90;;;;;;5011085;28;20084;-79
2022/10/06 08:01:17;;;;;;;10.38;7.53;;;16.50;99.90;;;;;;5011434;28;20099;-80
2022/10/06 08:03:47;;;;;;;8.77;6.70;;;16.40;99.90;;;;;;5010227;28;20030;-80
2022/10/06 08:06:14;;;;;;;9.55;7.47;;;16.50;99.90;;;;;;5011507;28;20026;-79
2022/10/06 08:08:45;;;;;;;9.68;7.55;;;16.50;99.90;;;;;;5010759;28;20022;-79
2022/10/06 08:11:12;;;;;;;9.68;6.97;;;16.50;99.90;;;;;;5011447;28;20018;-79
2022/10/06 08:13:41;;;;;;;8.40;6.30;;;16.50;99.90;;;;;;5012270;28;20526;-79
2022/10/06 08:16:13;;;;;;;7.70;6.70;;;16.70;99.90;;;;;;5011640;28;20562;-79
2022/10/06 08:18:39;;;;;;;7.80;6.43;;;16.70;99.90;;;;;;5011366;28;20026;-79
2022/10/06 08:21:16;;;;;;;6.88;5.90;;;16.70;99.90;;;;;;5026425;28;20049;-79
2022/10/06 08:23:43;;;;;;;6.97;6.03;;;16.80;99.90;;;;;;5011080;28;20026;-79
2022/10/06 08:26:10;;;;;;;7.35;5.90;;;16.70;99.90;;;;;;5011501;28;20033;-79
2022/10/06 08:28:36;;;;;;;6.85;5.88;;;16.80;99.90;;;;;;5011241;28;20044;-79
2022/10/06 08:31:10;;;;;;;5.93;5.32;;;16.80;99.90;;;;;;5011100;28;20121;-79
2022/10/06 08:33:37;;;;;;;8.73;5.30;;;16.90;99.90;;;;;;5011513;28;20026;-79
2022/10/06 08:36:07;;;;;;;6.65;5.35;;;17.00;99.90;;;;;;5011237;28;20034;-79
2022/10/06 08:38:34;;;;;;;6.22;5.45;;;16.90;99.90;;;;;;5010687;28;20129;-79
2022/10/06 08:41:00;;;;;;;6.25;5.50;;;17.00;99.90;;;;;;5025743;28;20041;-79
2022/10/06 08:43:27;;;;;;;6.95;5.28;;;17.00;99.90;;;;;;5010483;28;20030;-79
2022/10/06 08:45:58;;;;;;;6.90;5.68;;;17.00;99.90;;;;;;5010153;28;20026;-79
2022/10/06 08:48:27;;;;;;;;;;;17.00;99.90;;;;;;5007452;28;20014;-79
2022/10/06 08:50:59;;;;;;;7.70;6.10;;;17.10;99.90;;;;;;5010905;28;19916;-79
2022/10/06 08:53:48;;;;;;;6.93;5.80;;;17.10;99.90;;;;;;5011265;28;20034;-79
2022/10/06 08:56:18;;;;;;;7.28;5.30;;;17.10;99.90;;;;;;5006457;28;20038;-80
2022/10/06 08:58:57;;;;;;;6.87;5.40;;;17.20;99.90;;;;;;5003439;28;20091;-79
2022/10/06 09:01:40;;;;;;;6.20;5.60;;;17.20;99.90;;;;;;5025773;28;20038;-79
2022/10/06 09:04:06;;;;;;;6.93;5.90;;;17.20;99.90;;;;;;5009844;28;20104;-79
2022/10/06 09:06:44;;;;;;;6.50;5.85;;;17.20;99.90;;;;;;5010150;28;20021;-79
2022/10/06 09:09:34;;;;;;;5.85;4.85;;;17.30;99.90;;;;;;5009987;28;20034;-79
2022/10/06 09:12:24;;;;;;;6.40;5.78;;;17.30;99.90;;;;;;5010377;28;20034;-79
2022/10/06 09:15:16;;;;;;;6.70;5.05;;;17.50;99.90;;;;;;5011129;28;20124;-79
2022/10/06 09:17:49;;;;;;;;;;;17.60;99.90;;;;;;5010848;28;20030;-80
2022/10/06 09:20:29;;;;;;;7.00;5.20;;;17.70;99.90;;;;;;5010438;28;19917;-79
2022/10/06 09:22:56;;;;;;;7.68;5.22;;;17.60;99.90;;;;;;4997829;28;20623;-79
2022/10/06 09:25:26;;;;;;;9.05;5.43;;;17.50;99.90;;;;;;5010500;28;20111;-80
2022/10/06 09:27:54;;;;;;;6.40;5.18;;;17.70;99.90;;;;;;5010261;28;20018;-80
2022/10/06 09:30:21;;;;;;;6.30;4.95;;;17.80;99.90;;;;;;5008692;28;20034;-79
2022/10/06 09:32:52;;;;;;;6.47;5.30;;;17.80;99.90;;;;;;5010663;28;20523;-79
2022/10/06 09:35:20;;;;;;;6.63;5.63;;;17.70;99.90;;;;;;5010482;28;20037;-79
2022/10/06 09:38:02;;;;;;;10.25;5.85;;;17.90;99.90;;;;;;5009869;28;20056;-79
2022/10/06 09:40:36;;;;;;;9.25;5.93;;;17.90;99.90;;;;;;5009663;28;20030;-79
2022/10/06 09:43:21;;;;;;;9.00;6.80;;;17.90;99.90;;;;;;5004678;28;20573;-79
2022/10/06 09:45:50;;;;;;;9.23;6.10;;;17.90;99.90;;;;;;5010107;28;20033;-79
2022/10/06 09:48:24;;;;;;;8.10;6.88;;;18.00;99.90;;;;;;5025082;28;20051;-78
2022/10/06 09:51:16;;;;;;;8.45;6.22;;;18.00;99.90;;;;;;5010215;28;20037;-79
2022/10/06 09:54:01;;;;;;;8.75;5.68;;;18.20;99.90;;;;;;5009902;28;20120;-79
2022/10/06 09:56:27;;;;;;;10.35;5.32;;;18.20;99.90;;;;;;5014714;28;20060;-79
2022/10/06 09:58:56;;;;;;;7.18;5.93;;;18.20;99.90;;;;;;5013920;28;20049;-79
2022/10/06 10:01:27;;;;;;;8.00;5.80;;;18.10;99.90;;;;;;5012438;28;20026;-78
2022/10/06 10:03:54;;;;;;;;;;;18.20;99.90;;;;;;5014184;28;20022;-79
2022/10/06 10:06:28;;;;;;;8.43;5.28;;;18.40;99.90;;;;;;5014528;28;19913;-79
2022/10/06 10:09:16;;;;;;;7.88;5.63;;;18.40;99.90;;;;;;5014024;28;20026;-78
2022/10/06 10:14:26;;;;;;;5.35;4.70;;;18.50;99.90;;;;;;5000809;28;20088;-79
2022/10/06 10:16:52;;;;;;;6.13;5.38;;;18.60;99.90;;;;;;5023168;28;20080;-79
2022/10/06 10:19:27;;;;;;;8.15;4.90;;;18.70;99.90;;;;;;5014266;28;20026;-79
2022/10/06 10:21:56;;;;;;;7.85;4.80;;;18.80;99.90;;;;;;5012269;28;20057;-79
2022/10/06 10:24:46;;;;;;;10.40;5.10;;;18.90;99.90;;;;;;5014229;28;20060;-79
2022/10/06 10:27:49;;;;;;;7.25;4.97;;;19.00;99.90;;;;;;5012104;28;20030;-79
2022/10/06 10:30:15;;;;;;;7.00;4.43;;;19.10;99.90;;;;;;5011444;28;20061;-80
2022/10/06 10:33:10;;;;;;;7.00;4.95;;;19.10;99.90;;;;;;5011212;28;20471;-79
2022/10/06 10:35:45;;;;;;;10.52;5.40;;;19.20;99.90;;;;;;5011232;28;20080;-79
2022/10/06 10:38:20;;;;;;;8.13;5.28;;;19.40;99.90;;;;;;5010989;28;20057;-79
2022/10/06 10:40:50;;;;;;;6.68;5.10;;;19.50;99.90;;;;;;5010837;28;20049;-78
2022/10/06 10:43:31;;;;;;;6.93;4.65;;;19.90;99.90;;;;;;5011109;28;20515;-79
2022/10/06 10:46:10;;;;;;;5.80;4.88;;;20.40;99.90;;;;;;5002782;28;20588;-79
2022/10/06 10:48:57;;;;;;;6.35;4.72;;;20.50;99.90;;;;;;5010693;28;20022;-78
2022/10/06 10:52:01;;;;;;;5.72;4.75;;;20.50;99.90;;;;;;5010129;28;20042;-79
2022/10/06 10:54:43;;;;;;;5.38;4.20;;;20.40;99.90;;;;;;5004784;28;20678;-78
2022/10/06 10:57:21;;;;;;;5.32;4.25;;;20.30;99.90;;;;;;5011043;28;20087;-79
2022/10/06 10:59:51;;;;;;;6.90;4.57;;;20.40;99.90;;;;;;4999021;28;20092;-79
2022/10/06 11:02:20;;;;;;;4.90;4.40;;;20.70;99.90;;;;;;5010593;28;20057;-78
2022/10/06 11:05:09;;;;;;;5.63;4.72;;;20.70;99.90;;;;;;5010909;28;20029;-79
2022/10/06 11:07:57;;;;;;;6.97;4.50;;;20.80;99.90;;;;;;5003341;28;20068;-79
2022/10/06 11:10:30;;;;;;;7.35;4.15;;;20.90;99.90;;;;;;5012905;28;20029;-79
2022/10/06 11:13:10;;;;;;;5.10;4.53;;;20.80;99.90;;;;;;5013123;28;20080;-79
2022/10/06 11:15:56;;;;;;;4.65;3.70;;;20.40;99.90;;;;;;5012893;28;20030;-79
2022/10/06 11:18:44;;;;;;;5.30;3.55;;;20.40;99.90;;;;;;5012793;28;20038;-78
2022/10/06 11:21:20;;;;;;;3.83;3.53;;;20.50;99.90;;;;;;5027148;28;20037;-79
2022/10/06 11:23:52;;;;;;;3.78;3.15;;;20.60;99.90;;;;;;5027465;28;20037;-79
2022/10/06 11:26:47;;;;;;;5.20;3.13;;;20.80;99.90;;;;;;5012980;28;20030;-79
2022/10/06 11:29:21;;;;;;;5.97;3.80;;;20.90;99.90;;;;;;5002866;28;20022;-78
2022/10/06 11:31:55;;;;;;;5.97;3.33;;;21.10;99.90;;;;;;5012069;28;20091;-78
2022/10/06 11:34:21;;;;;;;3.55;3.10;;;21.20;99.90;;;;;;5027783;28;20076;-79
2022/10/06 11:37:16;;;;;;;4.03;3.58;;;20.90;99.90;;;;;;5012238;28;20097;-78
2022/10/06 11:39:58;;;;;;;3.30;2.97;;;20.80;99.90;;;;;;5012372;28;20030;-79
2022/10/06 11:42:52;;;;;;;2.78;2.58;;;20.80;99.90;;;;;;5011859;28;20057;-79
2022/10/06 11:45:34;;;;;;;3.40;3.00;;;21.00;99.90;;;;;;5012748;28;20022;-79
2022/10/06 11:48:28;;;;;;;6.20;2.97;;;21.10;99.90;;;;;;5007026;28;20052;-79
2022/10/06 11:50:55;;;;;;;6.97;3.47;;;21.60;99.90;;;;;;5012155;28;20032;-79
2022/10/06 11:53:33;;;;;;;4.50;3.83;;;21.70;99.90;;;;;;5007903;28;20040;-79
2022/10/06 11:56:17;;;;;;;4.32;3.13;;;21.60;99.90;;;;;;5012017;28;20026;-80
2022/10/06 11:58:55;;;;;;;3.63;2.95;;;21.30;99.90;;;;;;5011913;28;20040;-79
2022/10/06 12:01:44;;;;;;;4.85;2.80;;;21.10;99.90;;;;;;4999314;28;20033;-80
2022/10/06 12:04:09;;;;;;;3.80;3.22;;;20.90;99.90;;;;;;5010207;28;20049;-79
2022/10/06 12:06:47;;;;;;;3.45;2.70;;;20.90;99.90;;;;;;5011896;28;20517;-80
2022/10/06 12:09:27;;;;;;;3.65;2.97;;;20.80;99.90;;;;;;5011441;28;20034;-79
2022/10/06 12:12:02;;;;;;;2.65;2.45;;;20.70;99.90;;;;;;5011456;28;20026;-79
2022/10/06 12:14:33;;;;;;;5.82;3.13;;;20.60;99.90;;;;;;5011544;28;20030;-79
2022/10/06 12:17:14;;;;;;;3.75;2.40;;;20.70;99.90;;;;;;5010948;28;20059;-79
2022/10/06 12:19:59;;;;;;;3.08;2.75;;;20.70;99.90;;;;;;5027059;28;20026;-79
2022/10/06 12:22:30;;;;;;;3.90;2.60;;;20.80;99.90;;;;;;5026025;28;20045;-79
2022/10/06 12:25:05;;;;;;;3.20;2.90;;;20.80;99.90;;;;;;5011570;28;20045;-80
2022/10/06 12:27:57;;;;;;;2.67;2.30;;;20.80;99.90;;;;;;5009344;28;20034;-80
2022/10/06 12:30:52;;;;;;;2.55;2.35;;;20.90;99.90;;;;;;4998551;28;20206;-79
2022/10/06 12:33:19;;;;;;;2.50;2.28;;;21.00;99.90;;;;;;4989040;28;20042;-79
2022/10/06 12:35:46;;;;;;;3.08;2.20;;;20.80;99.90;;;;;;4989458;28;20096;-79
2022/10/06 12:38:32;;;;;;;3.95;2.60;;;20.90;99.90;;;;;;4972213;28;20046;-79
2022/10/06 12:40:58;;;;;;;3.65;2.92;;;20.80;99.90;;;;;;4966500;28;20038;-79
2022/10/06 12:43:44;;;;;;;3.42;2.65;;;20.70;99.90;;;;;;4972225;28;20036;-79
2022/10/06 12:46:38;;;;;;;3.80;2.65;;;20.70;99.90;;;;;;4988241;28;20054;-79
2022/10/06 12:49:33;;;;;;;4.07;3.05;;;20.80;99.90;;;;;;4983634;28;20055;-78
2022/10/06 12:52:12;;;;;;;4.75;2.97;;;20.40;99.90;;;;;;4968450;28;20189;-78
2022/10/06 12:54:54;;;;;;;3.97;2.97;;;20.50;99.90;;;;;;4987176;28;20113;-79
2022/10/06 12:57:20;;;;;;;4.75;2.90;;;20.50;99.90;;;;;;5004809;28;20092;-79
2022/10/06 12:59:48;;;;;;;3.72;3.20;;;20.60;99.90;;;;;;4988053;28;20110;-78
2022/10/06 13:02:23;;;;;;;4.88;2.97;;;20.50;99.90;;;;;;4988926;28;20037;-79
2022/10/06 13:05:01;;;;;;;3.80;3.13;;;20.50;99.90;;;;;;4989005;28;20045;-79
2022/10/06 13:07:31;;;;;;;4.22;3.03;;;20.40;99.90;;;;;;4972235;28;20523;-78
2022/10/06 13:10:13;;;;;;;3.97;3.50;;;20.30;99.90;;;;;;4996052;28;20042;-80
2022/10/06 13:12:46;;;;;;;3.58;2.85;;;20.30;99.90;;;;;;5010260;28;20026;-79
2022/10/06 13:15:22;;;;;;;3.45;2.92;;;20.40;99.90;;;;;;5009980;28;20034;-79